createdAt,value
2023-02-14T00:00:03.413Z,100341.34
2023-02-14T00:05:05.381Z,100359.06
2023-02-14T00:10:07.890Z,100353.53
2023-02-14T00:15:22.552Z,100365.66
2023-02-14T00:20:24.915Z,100371.75
2023-02-14T00:25:26.616Z,100357.69
2023-02-14T00:30:29.860Z,100361.09
2023-02-14T00:35:31.638Z,100357.78
2023-02-14T00:40:33.297Z,100346.34
2023-02-14T00:45:34.949Z,100356.91
2023-02-14T00:50:36.619Z,100372.72
2023-02-14T00:55:38.402Z,100369.75
2023-02-14T01:00:40.086Z,100374.28
2023-02-14T01:05:41.852Z,100360.19
2023-02-14T01:10:43.970Z,100358.56
2023-02-14T01:15:51.193Z,100363.59
2023-02-14T01:20:52.897Z,100366.19
2023-02-14T01:25:54.571Z,100360.63
2023-02-14T01:30:56.281Z,100353.72
2023-02-14T01:35:58.486Z,100367.38
2023-02-14T01:41:00.514Z,100363.59
2023-02-14T01:46:02.473Z,100351.53
2023-02-14T01:51:04.295Z,100347.09
2023-02-14T01:56:18.672Z,100354.94
2023-02-14T02:01:21.214Z,100341.44
2023-02-14T02:06:29.518Z,100324.41
2023-02-14T02:11:31.246Z,100332.84
2023-02-14T02:16:54.309Z,100341.66
2023-02-14T02:22:20.771Z,100346.06
2023-02-14T02:27:34.362Z,100348.47
2023-02-14T02:33:08.026Z,100348.47
2023-02-14T02:38:45.148Z,100332.75
2023-02-14T02:43:49.854Z,100334.50
2023-02-14T02:49:05.872Z,100335.53
2023-02-14T02:54:18.216Z,100338.22
2023-02-14T02:59:27.917Z,100332.03
2023-02-14T03:04:50.696Z,100339.53
2023-02-14T03:09:53.738Z,100337.09
2023-02-14T03:15:22.745Z,100337.59
2023-02-14T03:20:35.967Z,100329.22
2023-02-14T03:25:47.689Z,100322.19
2023-02-14T03:30:58.139Z,100336.94
2023-02-14T03:36:09.379Z,100335.91
2023-02-14T03:41:26.253Z,100342.00
2023-02-14T03:46:32.531Z,100335.03
2023-02-14T03:51:35.906Z,100335.19
2023-02-14T03:56:46.461Z,100342.03
2023-02-14T04:02:01.547Z,100335.06
2023-02-14T04:07:19.095Z,100338.47
2023-02-14T04:12:29.401Z,100333.91
2023-02-14T04:17:57.590Z,100323.59
2023-02-14T04:22:59.335Z,100318.31
2023-02-14T04:28:01.036Z,100316.44
2023-02-14T04:33:04.336Z,100307.66
2023-02-14T04:38:06.934Z,100296.63
2023-02-14T04:43:08.670Z,100306.56
2023-02-14T04:48:10.516Z,100300.66
2023-02-14T04:53:12.183Z,100284.38
2023-02-14T04:58:13.846Z,100282.69
2023-02-14T05:03:15.489Z,100285.72
2023-02-14T05:08:17.157Z,100279.75
2023-02-14T05:13:18.885Z,100280.88
2023-02-14T05:18:20.622Z,100271.31
2023-02-14T05:23:22.450Z,100276.56
2023-02-14T05:28:24.743Z,100267.38
2023-02-14T05:33:26.710Z,100271.22
2023-02-14T05:38:29.526Z,100278.66
2023-02-14T05:43:31.504Z,100272.75
2023-02-14T05:48:33.934Z,100271.75
2023-02-14T05:53:36.096Z,100268.47
2023-02-14T05:58:37.754Z,100271.63
2023-02-14T06:03:39.405Z,100266.56
2023-02-14T06:08:41.053Z,100281.19
2023-02-14T06:13:42.716Z,100280.50
2023-02-14T06:18:44.516Z,100277.88
2023-02-14T06:23:46.150Z,100280.44
2023-02-14T06:29:02.243Z,100275.28
2023-02-14T06:34:03.913Z,100280.44
2023-02-14T06:39:05.609Z,100292.53
2023-02-14T06:44:07.408Z,100290.72
2023-02-14T06:49:10.265Z,100288.09
2023-02-14T06:54:12.016Z,100290.22
2023-02-14T06:59:13.800Z,100280.75
2023-02-14T07:04:15.857Z,100283.31
2023-02-14T07:09:18.425Z,100279.09
2023-02-14T07:14:20.152Z,100270.41
2023-02-14T07:19:21.964Z,100273.75
2023-02-14T07:24:23.763Z,100274.66
2023-02-14T07:29:25.589Z,100260.91
2023-02-14T07:34:27.437Z,100251.41
2023-02-14T07:39:29.956Z,100247.06
2023-02-14T07:44:31.659Z,100241.84
2023-02-14T07:49:33.456Z,100240.25
2023-02-14T07:54:35.565Z,100235.09
2023-02-14T07:59:37.299Z,100235.91
2023-02-14T08:04:38.973Z,100241.28
2023-02-14T08:09:40.762Z,100244.03
2023-02-14T08:14:43.530Z,100252.72
2023-02-14T08:19:45.210Z,100245.44
2023-02-14T08:24:47.230Z,100238.13
2023-02-14T08:29:50.328Z,100245.94
2023-02-14T08:34:52.656Z,100247.78
2023-02-14T08:39:57.789Z,100256.56
2023-02-14T08:44:59.553Z,100247.91
2023-02-14T08:50:02.761Z,100250.63
2023-02-14T08:55:05.494Z,100250.75
2023-02-14T09:00:09.226Z,100247.38
2023-02-14T09:05:11.077Z,100243.94
2023-02-14T09:10:13.230Z,100246.72
2023-02-14T09:15:15.073Z,100238.09
2023-02-14T09:20:17.003Z,100247.78
2023-02-14T09:25:18.795Z,100244.31
2023-02-14T09:30:20.620Z,100241.78
2023-02-14T09:35:40.844Z,100247.09
2023-02-14T09:40:42.926Z,100248.03
2023-02-14T09:45:51.495Z,100254.16
2023-02-14T09:50:56.485Z,100244.59
2023-02-14T09:56:14.286Z,100242.00
2023-02-14T10:01:24.262Z,100243.81
2023-02-14T10:11:24.800Z,100230.81
2023-02-14T10:16:32.672Z,100234.31
2023-02-14T10:21:42.665Z,100231.69
2023-02-14T10:26:47.446Z,100224.69
2023-02-14T10:32:00.844Z,100230.84
2023-02-14T10:37:08.242Z,100224.69
2023-02-14T10:42:23.312Z,100219.47
2023-02-14T10:47:40.236Z,100214.19
2023-02-14T10:53:19.065Z,100209.84
2023-02-14T10:58:24.517Z,100205.44
2023-02-14T11:03:28.448Z,100190.94
2023-02-14T11:08:36.794Z,100180.75
2023-02-14T11:13:41.841Z,100175.97
2023-02-14T11:18:43.616Z,100166.38
2023-02-14T11:23:48.513Z,100162.44
2023-02-14T11:29:14.983Z,100171.19
2023-02-14T11:34:32.023Z,100161.19
2023-02-14T11:39:35.282Z,100158.22
2023-02-14T11:44:43.959Z,100159.53
2023-02-14T11:50:01.332Z,100156.09
2023-02-14T11:55:03.024Z,100141.31
2023-02-14T12:00:16.932Z,100133.41
2023-02-14T12:05:18.691Z,100133.41
2023-02-14T12:10:27.860Z,100136.44
2023-02-14T12:15:42.802Z,100131.25
2023-02-14T12:20:49.483Z,100112.28
2023-02-14T12:25:59.019Z,100118.81
2023-02-14T12:31:01.027Z,100107.44
2023-02-14T12:36:02.866Z,100105.91
2023-02-14T12:41:04.719Z,100095.00
2023-02-14T12:46:34.273Z,100086.44
2023-02-14T12:52:10.142Z,100078.44
2023-02-14T12:57:14.822Z,100075.88
2023-02-14T13:02:58.404Z,100066.56
2023-02-14T13:08:38.426Z,100063.06
2023-02-14T13:14:04.746Z,100058.69
2023-02-14T13:19:33.793Z,100057.75
2023-02-14T13:24:44.891Z,100052.44
2023-02-14T13:29:56.574Z,100053.28
2023-02-14T13:34:58.871Z,100044.44
2023-02-14T13:40:08.287Z,100041.78
2023-02-14T13:45:30.425Z,100047.31
2023-02-14T13:50:37.201Z,100050.28
2023-02-14T13:55:44.305Z,100052.72
2023-02-14T14:00:50.853Z,100044.47
2023-02-14T14:06:10.813Z,100040.59
2023-02-14T14:11:35.071Z,100045.75
2023-02-14T14:16:38.446Z,100046.34
2023-02-14T14:21:45.901Z,100043.84
2023-02-14T14:27:15.561Z,100046.09
2023-02-14T14:32:21.588Z,100047.63
2023-02-14T14:37:29.181Z,100042.47
2023-02-14T14:42:36.939Z,100050.13
2023-02-14T14:47:43.505Z,100049.16
2023-02-14T14:52:54.491Z,100038.91
2023-02-14T14:58:04.902Z,100041.25
2023-02-14T15:03:12.321Z,100047.78
2023-02-14T15:08:20.218Z,100046.59
2023-02-14T15:13:57.574Z,100049.56
2023-02-14T15:19:12.937Z,100036.50
2023-02-14T15:24:17.498Z,100045.16
2023-02-14T15:29:22.986Z,100051.00
2023-02-14T15:34:36.206Z,100040.91
2023-02-14T15:39:50.508Z,100052.25
2023-02-14T15:45:22.595Z,100047.22
2023-02-14T15:50:28.048Z,100053.69
2023-02-14T15:55:31.100Z,100048.03
2023-02-14T16:00:34.066Z,100054.22
2023-02-14T16:05:35.934Z,100055.97
2023-02-14T16:10:39.184Z,100056.94
2023-02-14T16:16:00.260Z,100058.94
2023-02-14T16:21:22.025Z,100072.38
2023-02-14T16:26:23.949Z,100071.66
2023-02-14T16:31:25.801Z,100086.59
2023-02-14T16:36:33.108Z,100089.38
2023-02-14T16:41:35.283Z,100085.97
2023-02-14T16:46:37.695Z,100092.25
2023-02-14T16:51:43.414Z,100095.81
2023-02-14T16:56:59.105Z,100099.34
2023-02-14T17:02:02.686Z,100093.28
2023-02-14T17:07:06.982Z,100097.72
2023-02-14T17:12:16.540Z,100102.13
2023-02-14T17:17:20.023Z,100100.44
2023-02-14T17:22:22.469Z,100105.69
2023-02-14T17:27:24.823Z,100105.75
2023-02-14T17:32:28.222Z,100103.13
2023-02-14T17:37:31.870Z,100098.81
2023-02-14T17:42:36.511Z,100107.56
2023-02-14T17:47:40.180Z,100114.56
2023-02-14T17:52:43.268Z,100114.56
2023-02-14T17:57:45.279Z,100113.69
2023-02-14T18:02:47.904Z,100114.59
2023-02-14T18:07:52.501Z,100118.09
2023-02-14T18:12:56.027Z,100112.81
2023-02-14T18:17:58.546Z,100118.06
2023-02-14T18:23:02.774Z,100132.03
2023-02-14T18:28:05.873Z,100129.44
2023-02-14T18:33:08.301Z,100132.06
2023-02-14T18:38:11.466Z,100135.59
2023-02-14T18:43:15.184Z,100132.94
2023-02-14T18:48:19.720Z,100136.47
2023-02-14T18:53:23.917Z,100137.34
2023-02-14T18:58:26.476Z,100139.94
2023-02-14T19:03:29.432Z,100136.47
2023-02-14T19:08:37.155Z,100139.94
2023-02-14T19:13:39.599Z,100141.69
2023-02-14T19:23:58.570Z,100135.56
2023-02-14T19:29:05.275Z,100139.03
2023-02-14T19:34:09.879Z,100138.19
2023-02-14T19:39:18.138Z,100139.03
2023-02-14T19:44:24.994Z,100141.66
2023-02-14T19:49:29.237Z,100137.28
2023-02-14T19:54:32.867Z,100138.13
2023-02-14T19:59:35.036Z,100134.63
2023-02-14T20:04:38.783Z,100141.59
2023-02-14T20:09:43.564Z,100145.06
2023-02-14T20:14:51.352Z,100143.31
2023-02-14T20:19:54.612Z,100148.47
2023-02-14T20:25:00.250Z,100143.28
2023-02-14T20:30:08.125Z,100148.53
2023-02-14T20:35:11.009Z,100148.50
2023-02-14T20:40:14.574Z,100138.88
2023-02-14T20:45:17.456Z,100135.41
2023-02-14T20:50:20.842Z,100128.38
2023-02-14T20:55:23.578Z,100131.00
2023-02-14T21:00:26.289Z,100131.88
2023-02-14T21:05:29.477Z,100130.09
2023-02-14T21:10:32.457Z,100133.56
2023-02-14T21:15:35.273Z,100132.69
2023-02-14T21:20:38.261Z,100132.66
2023-02-14T21:25:41.671Z,100128.28
2023-02-14T21:30:44.710Z,100130.94
2023-02-14T21:35:47.370Z,100127.53
2023-02-14T21:41:02.554Z,100128.41
2023-02-14T21:46:06.980Z,100139.69
2023-02-14T21:51:11.232Z,100131.88
2023-02-14T21:56:18.096Z,100129.19
2023-02-14T22:01:32.340Z,100127.34
2023-02-14T22:06:35.333Z,100126.47
2023-02-14T22:11:37.097Z,100131.69
2023-02-14T22:16:39.106Z,100128.16
2023-02-14T22:21:41.390Z,100134.22
2023-02-14T22:26:43.226Z,100139.44
2023-02-14T22:31:45.055Z,100139.41
2023-02-14T22:36:46.942Z,100141.94
2023-02-14T22:41:48.567Z,100151.56
2023-02-14T22:46:50.348Z,100157.63
2023-02-14T22:51:52.040Z,100149.81
2023-02-14T22:56:53.664Z,100148.91
2023-02-14T23:01:55.407Z,100152.38
2023-02-14T23:06:57.245Z,100150.63
2023-02-14T23:11:58.934Z,100159.25
2023-02-14T23:17:19.070Z,100157.53
2023-02-14T23:22:26.563Z,100147.03
2023-02-14T23:27:37.079Z,100143.50
2023-02-14T23:32:38.844Z,100136.53
2023-02-14T23:37:41.030Z,100127.94
2023-02-14T23:42:42.744Z,100122.56
2023-02-14T23:47:44.424Z,100118.38
2023-02-14T23:52:46.153Z,100113.91
2023-02-14T23:57:47.885Z,100107.63
